createdAt,value
2023-03-29T00:00:23.457Z,0.7
2023-03-29T00:05:26.088Z,0.9
2023-03-29T00:10:31.931Z,0.8
2023-03-29T00:15:21.248Z,0.7
2023-03-29T00:20:27.986Z,0.6
2023-03-29T00:25:33.210Z,0.5
2023-03-29T00:30:22.141Z,0.4
2023-03-29T00:35:27.863Z,0.4
2023-03-29T00:40:18.775Z,0.3
2023-03-29T00:45:22.956Z,0.3
2023-03-29T00:50:29.026Z,0.4
2023-03-29T00:55:18.343Z,0.5
2023-03-29T01:00:25.323Z,0.6
2023-03-29T01:05:29.519Z,0.6
2023-03-29T01:10:18.778Z,0.5
2023-03-29T01:15:24.923Z,0.6
2023-03-29T01:20:31.565Z,0.7
2023-03-29T01:25:19.738Z,1.2
2023-03-29T01:30:27.638Z,1.5
2023-03-29T01:35:31.187Z,1.7
2023-03-29T01:40:20.423Z,1.7
2023-03-29T01:45:26.269Z,1.8
2023-03-29T01:50:32.595Z,1.9
2023-03-29T01:55:21.613Z,1.9
2023-03-29T02:00:31.932Z,1.9
2023-03-29T02:05:16.399Z,2.0
2023-03-29T02:10:22.622Z,1.9
2023-03-29T02:15:28.583Z,1.8
2023-03-29T02:20:17.772Z,1.7
2023-03-29T02:25:23.483Z,1.7
2023-03-29T02:30:30.051Z,1.7
2023-03-29T02:35:18.807Z,1.6
2023-03-29T02:40:26.203Z,1.6
2023-03-29T02:45:30.965Z,1.5
2023-03-29T02:50:20.049Z,1.5
2023-03-29T02:55:26.171Z,1.5
2023-03-29T03:00:32.434Z,1.4
2023-03-29T03:05:20.457Z,1.4
2023-03-29T03:10:26.543Z,1.4
2023-03-29T03:15:32.626Z,1.4
2023-03-29T03:20:22.910Z,1.3
2023-03-29T03:25:27.936Z,1.3
2023-03-29T03:30:16.794Z,1.3
2023-03-29T03:35:22.225Z,1.2
2023-03-29T03:40:28.500Z,1.2
2023-03-29T03:45:17.223Z,1.3
2023-03-29T03:50:23.315Z,1.3
2023-03-29T03:55:29.693Z,1.3
2023-03-29T04:00:24.249Z,1.3
2023-03-29T04:05:25.100Z,1.2
2023-03-29T04:10:30.857Z,1.2
2023-03-29T04:15:20.108Z,1.2
2023-03-29T04:20:27.202Z,1.2
2023-03-29T04:25:32.069Z,1.1
2023-03-29T04:30:21.062Z,1.1
2023-03-29T04:35:26.805Z,1.1
2023-03-29T04:40:32.855Z,1.0
2023-03-29T04:45:21.681Z,1.0
2023-03-29T04:50:27.671Z,1.0
2023-03-29T04:55:16.714Z,1.0
2023-03-29T05:00:24.348Z,1.0
2023-03-29T05:05:29.359Z,1.0
2023-03-29T05:10:18.237Z,1.0
2023-03-29T05:15:24.479Z,1.1
2023-03-29T05:20:30.324Z,1.1
2023-03-29T05:25:19.327Z,1.1
2023-03-29T05:30:25.633Z,1.1
2023-03-29T05:35:31.536Z,1.2
2023-03-29T05:40:21.444Z,1.1
2023-03-29T05:45:26.455Z,1.2
2023-03-29T05:50:32.501Z,1.2
2023-03-29T05:55:21.294Z,1.2
2023-03-29T06:00:32.352Z,1.3
2023-03-29T06:05:33.374Z,1.3
2023-03-29T06:10:22.155Z,1.3
2023-03-29T06:15:28.128Z,1.4
2023-03-29T06:20:17.256Z,1.5
2023-03-29T06:25:23.262Z,1.6
2023-03-29T06:30:29.298Z,1.6
2023-03-29T06:35:17.741Z,1.7
2023-03-29T06:40:24.987Z,1.8
2023-03-29T06:45:29.800Z,1.9
2023-03-29T06:50:19.061Z,2.0
2023-03-29T06:55:24.929Z,2.0
2023-03-29T07:00:31.046Z,2.2
2023-03-29T07:05:20.373Z,2.3
2023-03-29T07:10:26.423Z,2.5
2023-03-29T07:15:32.707Z,2.5
2023-03-29T07:20:22.447Z,2.6
2023-03-29T07:25:27.266Z,2.6
2023-03-29T07:30:35.248Z,2.7
2023-03-29T07:35:22.177Z,2.8
2023-03-29T07:40:28.507Z,2.9
2023-03-29T07:45:17.435Z,3.0
2023-03-29T07:50:23.524Z,3.0
2023-03-29T07:55:29.563Z,3.0
2023-03-29T08:00:23.973Z,3.1
2023-03-29T08:05:37.780Z,3.1
2023-03-29T08:10:29.985Z,3.2
2023-03-29T08:15:19.759Z,3.4
2023-03-29T08:20:26.199Z,3.6
2023-03-29T08:25:31.253Z,3.6
2023-03-29T08:30:20.166Z,3.8
2023-03-29T08:35:25.520Z,3.8
2023-03-29T08:40:31.645Z,4.0
2023-03-29T08:45:20.586Z,4.2
2023-03-29T08:50:26.533Z,4.3
2023-03-29T08:55:32.556Z,4.5
2023-03-29T09:00:23.275Z,4.6
2023-03-29T09:05:27.520Z,4.7
2023-03-29T09:10:16.559Z,4.7
2023-03-29T09:16:06.667Z,4.7
2023-03-29T09:20:28.765Z,5.4
2023-03-29T09:25:17.744Z,6.0
2023-03-29T09:30:23.926Z,6.2
2023-03-29T09:35:29.840Z,7.3
2023-03-29T09:40:18.834Z,7.0
2023-03-29T09:45:25.036Z,7.2
2023-03-29T09:50:32.218Z,6.7
2023-03-29T09:55:20.999Z,6.8
2023-03-29T10:00:26.241Z,7.5
2023-03-29T10:05:31.449Z,8.0
2023-03-29T10:10:20.408Z,8.1
2023-03-29T10:15:29.577Z,8.2
2023-03-29T10:20:34.867Z,8.1
2023-03-29T10:25:21.543Z,8.1
2023-03-29T10:30:27.933Z,7.8
2023-03-29T10:35:16.419Z,7.7
2023-03-29T10:40:23.749Z,7.8
2023-03-29T10:45:28.458Z,8.0
2023-03-29T10:50:17.387Z,8.3
2023-03-29T10:55:23.533Z,9.0
2023-03-29T11:00:30.953Z,9.0
2023-03-29T11:05:18.854Z,9.0
2023-03-29T11:10:24.973Z,9.1
2023-03-29T11:15:31.039Z,9.3
2023-03-29T11:20:20.289Z,9.3
2023-03-29T11:25:29.507Z,9.5
2023-03-29T11:30:32.255Z,9.9
2023-03-29T11:35:20.464Z,10.2
2023-03-29T11:40:27.165Z,10.1
2023-03-29T11:45:32.775Z,10.3
2023-03-29T11:50:21.760Z,11.0
2023-03-29T11:55:27.789Z,10.9
2023-03-29T12:00:17.835Z,10.7
2023-03-29T12:05:23.448Z,10.7
2023-03-29T12:10:29.260Z,10.8
2023-03-29T12:15:18.807Z,10.6
2023-03-29T12:20:25.477Z,10.7
2023-03-29T12:25:30.472Z,10.5
2023-03-29T12:30:19.463Z,10.7
2023-03-29T12:35:24.806Z,10.8
2023-03-29T12:40:30.918Z,11.3
2023-03-29T12:45:19.983Z,11.0
2023-03-29T12:50:26.050Z,10.9
2023-03-29T12:55:32.049Z,10.9
2023-03-29T13:00:22.524Z,11.3
2023-03-29T13:05:26.599Z,11.8
2023-03-29T13:10:32.548Z,11.6
2023-03-29T13:15:21.567Z,11.3
2023-03-29T13:20:27.746Z,11.3
2023-03-29T13:25:16.777Z,11.3
2023-03-29T13:30:22.858Z,11.3
2023-03-29T13:35:29.950Z,11.7
2023-03-29T13:40:17.304Z,11.7
2023-03-29T13:45:23.374Z,11.7
2023-03-29T13:50:29.394Z,11.6
2023-03-29T13:55:18.390Z,11.5
2023-03-29T14:00:30.018Z,11.5
2023-03-29T14:05:30.961Z,11.7
2023-03-29T14:10:19.669Z,11.9
2023-03-29T14:15:25.852Z,12.0
2023-03-29T14:20:31.961Z,12.0
2023-03-29T14:25:20.937Z,11.9
2023-03-29T14:30:26.992Z,11.8
2023-03-29T14:35:36.200Z,11.7
2023-03-29T14:40:23.141Z,11.7
2023-03-29T14:45:27.762Z,11.7
2023-03-29T14:50:16.844Z,11.7
2023-03-29T14:55:22.889Z,11.7
2023-03-29T15:00:29.491Z,11.8
2023-03-29T15:05:17.201Z,11.6
2023-03-29T15:10:23.349Z,11.6
2023-03-29T15:15:29.372Z,11.4
2023-03-29T15:20:18.428Z,11.4
2023-03-29T15:25:24.416Z,11.5
2023-03-29T15:30:30.508Z,11.5
2023-03-29T15:35:19.243Z,11.5
2023-03-29T15:40:26.276Z,11.5
2023-03-29T15:45:31.392Z,11.5
2023-03-29T15:50:20.482Z,11.6
2023-03-29T15:55:26.564Z,11.5
2023-03-29T16:00:36.417Z,11.7
2023-03-29T16:05:22.423Z,11.7
2023-03-29T16:10:28.179Z,11.7
2023-03-29T16:15:16.957Z,11.6
2023-03-29T16:20:23.296Z,11.6
2023-03-29T16:25:29.198Z,11.6
2023-03-29T16:30:18.232Z,11.5
2023-03-29T16:35:23.702Z,11.4
2023-03-29T16:40:29.718Z,11.4
2023-03-29T16:45:18.759Z,11.4
2023-03-29T16:50:24.886Z,11.3
2023-03-29T16:55:30.819Z,11.2
2023-03-29T17:00:21.152Z,11.2
2023-03-29T17:05:25.352Z,11.2
2023-03-29T17:10:31.347Z,11.1
2023-03-29T17:15:20.434Z,11.1
2023-03-29T17:20:26.492Z,11.0
2023-03-29T17:25:32.528Z,10.9
2023-03-29T17:30:21.568Z,10.8
2023-03-29T17:35:27.976Z,10.7
2023-03-29T17:40:18.203Z,10.7
2023-03-29T17:45:23.093Z,10.6
2023-03-29T17:50:29.073Z,10.4
2023-03-29T17:55:18.141Z,10.3
2023-03-29T18:00:27.355Z,10.2
2023-03-29T18:05:29.696Z,10.2
2023-03-29T18:10:18.630Z,10.1
2023-03-29T18:15:24.676Z,10.0
2023-03-29T18:20:30.776Z,9.9
2023-03-29T18:25:19.789Z,9.9
2023-03-29T18:30:25.849Z,9.8
2023-03-29T18:35:31.485Z,9.7
2023-03-29T18:40:20.842Z,9.6
2023-03-29T18:45:26.532Z,9.4
2023-03-29T18:50:32.621Z,9.4
2023-03-29T18:55:21.593Z,9.3
2023-03-29T19:00:27.949Z,9.2
2023-03-29T19:05:17.277Z,9.1
2023-03-29T19:10:23.089Z,9.0
2023-03-29T19:15:29.334Z,8.9
2023-03-29T19:20:18.424Z,8.8
2023-03-29T19:25:24.391Z,8.8
2023-03-29T19:30:30.343Z,8.7
2023-03-29T19:35:18.842Z,8.7
2023-03-29T19:40:26.531Z,8.6
2023-03-29T19:45:31.022Z,8.6
2023-03-29T19:50:20.096Z,8.5
2023-03-29T19:55:26.027Z,8.5
2023-03-29T20:00:36.106Z,8.5
2023-03-29T20:05:21.121Z,8.5
2023-03-29T20:10:26.493Z,8.4
2023-03-29T20:15:32.552Z,8.4
2023-03-29T20:20:21.745Z,8.4
2023-03-29T20:25:27.630Z,8.4
2023-03-29T20:30:16.734Z,8.4
2023-03-29T20:35:23.176Z,8.4
2023-03-29T20:40:29.236Z,8.5
2023-03-29T20:45:18.230Z,8.5
2023-03-29T20:50:24.373Z,8.5
2023-03-29T20:55:30.350Z,8.5
2023-03-29T21:00:20.885Z,8.5
2023-03-29T21:05:24.818Z,8.5
2023-03-29T21:10:30.936Z,8.5
2023-03-29T21:15:19.786Z,8.5
2023-03-29T21:20:26.510Z,8.4
2023-03-29T21:25:31.929Z,8.3
2023-03-29T21:30:21.794Z,8.3
2023-03-29T21:35:26.549Z,8.3
2023-03-29T21:40:32.525Z,8.2
2023-03-29T21:45:21.516Z,8.2
2023-03-29T21:50:27.730Z,8.2
2023-03-29T21:55:16.764Z,8.2
2023-03-29T22:00:27.798Z,8.2
2023-03-29T22:05:29.304Z,8.2
2023-03-29T22:10:18.645Z,8.1
2023-03-29T22:15:24.396Z,8.1
2023-03-29T22:20:32.273Z,8.1
2023-03-29T22:25:19.743Z,8.1
2023-03-29T22:30:25.522Z,8.1
2023-03-29T22:35:30.952Z,7.9
2023-03-29T22:40:21.045Z,7.9
2023-03-29T22:45:25.966Z,8.0
2023-03-29T22:50:32.141Z,8.0
2023-03-29T22:55:21.039Z,8.0
2023-03-29T23:00:28.210Z,8.1
2023-03-29T23:05:33.014Z,8.1
2023-03-29T23:10:21.867Z,8.1
2023-03-29T23:15:29.442Z,8.0
2023-03-29T23:20:17.236Z,7.9
2023-03-29T23:25:23.102Z,7.8
2023-03-29T23:30:29.131Z,7.8
2023-03-29T23:35:18.088Z,7.8
2023-03-29T23:40:25.014Z,7.7
2023-03-29T23:45:30.402Z,7.7
2023-03-29T23:50:19.366Z,7.8
2023-03-29T23:55:25.308Z,7.7
